createdAt,value
2023-01-19T00:02:15.081Z,5.44
2023-01-19T00:04:50.338Z,5.39
2023-01-19T00:07:20.478Z,5.39
2023-01-19T00:10:00.739Z,5.43
2023-01-19T00:12:47.821Z,5.39
2023-01-19T00:15:19.368Z,5.44
2023-01-19T00:17:48.440Z,5.47
2023-01-19T00:20:27.563Z,5.49
2023-01-19T00:23:36.253Z,5.49
2023-01-19T00:26:04.491Z,5.45
2023-01-19T00:28:52.262Z,5.48
2023-01-19T00:31:49.683Z,5.52
2023-01-19T00:34:17.040Z,5.53
2023-01-19T00:37:10.650Z,5.55
2023-01-19T00:39:47.430Z,5.58
2023-01-19T00:42:34.099Z,5.60
2023-01-19T00:45:01.766Z,5.63
2023-01-19T00:47:31.476Z,5.62
2023-01-19T00:50:19.484Z,5.59
2023-01-19T00:53:09.929Z,5.49
2023-01-19T00:55:50.727Z,5.46
2023-01-19T00:58:19.418Z,5.40
2023-01-19T01:01:05.910Z,5.42
2023-01-19T01:03:55.237Z,5.41
2023-01-19T01:06:30.311Z,5.37
2023-01-19T01:08:57.625Z,5.35
2023-01-19T01:11:29.089Z,5.33
2023-01-19T01:13:56.785Z,5.33
2023-01-19T01:16:24.523Z,5.32
2023-01-19T01:18:57.100Z,5.30
2023-01-19T01:21:46.483Z,5.29
2023-01-19T01:24:18.472Z,5.30
2023-01-19T01:27:06.882Z,5.28
2023-01-19T01:29:40.766Z,5.31
2023-01-19T01:32:11.541Z,5.30
2023-01-19T01:34:49.921Z,5.31
2023-01-19T01:37:58.014Z,5.33
2023-01-19T01:40:33.482Z,5.35
2023-01-19T01:43:27.985Z,5.36
2023-01-19T01:46:15.820Z,5.35
2023-01-19T01:48:52.986Z,5.33
2023-01-19T01:51:29.795Z,5.37
2023-01-19T01:54:19.670Z,5.38
2023-01-19T01:56:52.660Z,5.37
2023-01-19T01:59:29.103Z,5.35
2023-01-19T02:02:20.169Z,5.33
2023-01-19T02:04:49.167Z,5.34
2023-01-19T02:07:49.333Z,5.34
2023-01-19T02:10:29.476Z,5.29
2023-01-19T02:13:20.484Z,5.28
2023-01-19T02:16:09.868Z,5.25
2023-01-19T02:18:48.383Z,5.21
2023-01-19T02:21:31.185Z,5.18
2023-01-19T02:24:02.262Z,5.14
2023-01-19T02:26:35.129Z,5.11
2023-01-19T02:29:07.755Z,5.07
2023-01-19T02:31:38.635Z,5.04
2023-01-19T02:34:26.040Z,5.01
2023-01-19T02:37:06.657Z,4.97
2023-01-19T02:39:45.786Z,4.96
2023-01-19T02:42:22.022Z,4.96
2023-01-19T02:44:55.203Z,4.98
2023-01-19T02:47:42.666Z,5.01
2023-01-19T02:50:41.279Z,5.06
2023-01-19T02:53:43.846Z,5.12
2023-01-19T02:56:48.914Z,5.16
2023-01-19T03:00:03.465Z,5.19
2023-01-19T03:03:08.673Z,5.25
2023-01-19T03:06:03.521Z,5.28
2023-01-19T03:08:57.096Z,5.31
2023-01-19T03:12:18.750Z,5.32
2023-01-19T03:14:57.705Z,5.32
2023-01-19T03:17:48.825Z,5.33
2023-01-19T03:20:25.739Z,5.29
2023-01-19T03:23:03.203Z,5.27
2023-01-19T03:25:40.222Z,5.22
2023-01-19T03:28:43.125Z,5.18
2023-01-19T03:31:37.063Z,5.14
2023-01-19T03:34:09.624Z,5.09
2023-01-19T03:37:04.152Z,5.01
2023-01-19T03:39:38.222Z,4.89
2023-01-19T03:42:10.163Z,4.86
2023-01-19T03:44:40.296Z,4.84
2023-01-19T03:47:27.969Z,4.81
2023-01-19T03:49:57.885Z,4.77
2023-01-19T03:52:53.325Z,4.75
2023-01-19T03:55:48.285Z,4.74
2023-01-19T03:58:42.256Z,4.74
2023-01-19T04:01:09.919Z,4.78
2023-01-19T04:03:37.594Z,4.82
2023-01-19T04:06:10.246Z,4.86
2023-01-19T04:08:58.431Z,4.91
2023-01-19T04:11:39.593Z,4.96
2023-01-19T04:14:16.247Z,5.03
2023-01-19T04:16:44.553Z,5.10
2023-01-19T04:19:23.453Z,5.18
2023-01-19T04:21:56.211Z,5.26
2023-01-19T04:24:30.844Z,5.36
2023-01-19T04:27:03.454Z,5.44
2023-01-19T04:29:32.655Z,5.42
2023-01-19T04:32:13.765Z,5.26
2023-01-19T04:35:01.656Z,5.12
2023-01-19T04:37:30.167Z,5.00
2023-01-19T04:40:03.883Z,5.01
2023-01-19T04:42:51.310Z,5.01
2023-01-19T04:45:18.946Z,4.99
2023-01-19T04:48:10.750Z,4.98
2023-01-19T04:50:41.191Z,4.98
2023-01-19T04:53:15.819Z,4.96
2023-01-19T04:55:49.293Z,4.89
2023-01-19T04:58:18.209Z,4.82
2023-01-19T05:00:56.035Z,4.80
2023-01-19T05:03:26.826Z,4.79
2023-01-19T05:05:59.031Z,4.80
2023-01-19T05:08:26.692Z,4.85
2023-01-19T05:10:54.056Z,4.93
2023-01-19T05:13:21.606Z,5.06
2023-01-19T05:15:55.559Z,5.20
2023-01-19T05:18:22.338Z,5.33
2023-01-19T05:21:08.995Z,5.45
2023-01-19T05:23:36.185Z,5.32
2023-01-19T05:26:07.649Z,5.28
2023-01-19T05:28:39.497Z,5.27
2023-01-19T05:31:08.188Z,5.18
2023-01-19T05:33:38.881Z,5.11
2023-01-19T05:36:27.265Z,5.09
2023-01-19T05:38:56.024Z,5.01
2023-01-19T05:41:38.710Z,4.95
2023-01-19T05:44:15.558Z,4.89
2023-01-19T05:46:56.331Z,4.82
2023-01-19T05:49:25.011Z,4.81
2023-01-19T05:52:48.374Z,4.83
2023-01-19T05:55:16.189Z,4.87
2023-01-19T05:57:43.461Z,4.93
2023-01-19T06:00:10.815Z,4.99
2023-01-19T06:02:37.294Z,5.05
2023-01-19T06:05:04.146Z,5.10
2023-01-19T06:07:31.277Z,5.14
2023-01-19T06:09:58.228Z,5.16
2023-01-19T06:12:24.665Z,5.19
2023-01-19T06:14:51.321Z,5.20
2023-01-19T06:17:18.443Z,5.22
2023-01-19T06:19:47.691Z,5.22
2023-01-19T06:22:14.503Z,5.22
2023-01-19T06:24:41.768Z,5.21
2023-01-19T06:27:08.460Z,5.20
2023-01-19T06:29:36.043Z,5.19
2023-01-19T06:32:02.628Z,5.17
2023-01-19T06:34:29.298Z,5.12
2023-01-19T06:36:56.165Z,5.08
2023-01-19T06:39:23.162Z,5.03
2023-01-19T06:41:50.192Z,4.99
2023-01-19T06:44:17.304Z,4.97
2023-01-19T06:46:43.881Z,4.98
2023-01-19T06:49:10.523Z,4.97
2023-01-19T06:51:37.388Z,4.93
2023-01-19T06:54:04.577Z,4.97
2023-01-19T06:56:31.150Z,5.08
2023-01-19T06:58:57.819Z,5.18
2023-01-19T07:01:24.791Z,5.27
2023-01-19T07:03:51.527Z,5.34
2023-01-19T07:06:18.715Z,5.41
2023-01-19T07:08:45.552Z,5.51
2023-01-19T07:11:25.800Z,5.59
2023-01-19T07:13:58.422Z,5.70
2023-01-19T07:16:27.769Z,5.81
2023-01-19T07:18:54.804Z,5.90
2023-01-19T07:21:23.278Z,5.99
2023-01-19T07:23:54.716Z,6.04
2023-01-19T07:26:24.482Z,6.12
2023-01-19T07:28:55.175Z,6.20
2023-01-19T07:31:31.198Z,6.26
2023-01-19T07:34:11.722Z,6.29
2023-01-19T07:36:42.529Z,6.36
2023-01-19T07:39:23.140Z,6.44
2023-01-19T07:43:20.272Z,6.55
2023-01-19T07:53:29.708Z,7.12
2023-01-19T07:57:08.458Z,7.34
2023-01-19T08:04:41.628Z,7.61
2023-01-19T08:07:15.906Z,7.67
2023-01-19T08:09:43.533Z,7.70
2023-01-19T08:12:15.455Z,7.69
2023-01-19T08:14:43.899Z,7.68
2023-01-19T08:17:17.288Z,7.72
2023-01-19T08:20:10.711Z,7.76
2023-01-19T08:22:50.105Z,7.73
2023-01-19T08:25:31.252Z,7.71
2023-01-19T08:28:02.709Z,7.77
2023-01-19T08:30:29.780Z,7.89
2023-01-19T08:33:10.044Z,8.03
2023-01-19T08:36:13.975Z,8.18
2023-01-19T08:40:18.399Z,8.32
2023-01-19T08:43:39.067Z,8.51
2023-01-19T08:46:12.640Z,8.61
2023-01-19T08:48:40.331Z,8.74
2023-01-19T08:51:17.346Z,8.80
2023-01-19T08:53:55.300Z,8.90
2023-01-19T08:56:28.559Z,8.92
2023-01-19T09:02:00.065Z,8.98
2023-01-19T09:04:29.133Z,8.95
2023-01-19T09:06:56.061Z,9.08
2023-01-19T09:09:25.021Z,9.09
2023-01-19T09:11:55.210Z,9.10
2023-01-19T09:14:24.967Z,9.19
2023-01-19T09:16:53.351Z,9.26
2023-01-19T09:19:30.487Z,9.39
2023-01-19T09:22:14.281Z,9.56
2023-01-19T09:24:56.073Z,9.66
2023-01-19T09:27:25.518Z,9.77
2023-01-19T09:30:17.575Z,9.87
2023-01-19T09:32:51.303Z,9.91
2023-01-19T09:35:18.836Z,10.01
2023-01-19T09:37:51.651Z,10.21
2023-01-19T09:40:22.505Z,10.28
2023-01-19T09:43:01.506Z,10.45
2023-01-19T09:45:51.914Z,10.57
2023-01-19T09:48:49.652Z,10.80
2023-01-19T09:51:26.809Z,11.02
2023-01-19T09:54:04.547Z,11.10
2023-01-19T09:56:34.039Z,11.19
2023-01-19T09:59:38.574Z,11.39
2023-01-19T10:02:44.181Z,11.35
2023-01-19T10:05:41.349Z,11.25
2023-01-19T10:08:34.819Z,11.23
2023-01-19T10:11:19.579Z,11.06
2023-01-19T10:13:52.238Z,11.00
2023-01-19T10:16:48.275Z,10.94
2023-01-19T10:19:43.726Z,11.00
2023-01-19T10:22:26.212Z,11.07
2023-01-19T10:24:59.569Z,11.12
2023-01-19T10:27:29.638Z,11.22
2023-01-19T10:29:58.305Z,11.32
2023-01-19T10:32:29.738Z,11.49
2023-01-19T10:35:00.343Z,11.62
2023-01-19T10:37:32.211Z,11.72
2023-01-19T10:40:21.985Z,11.81
2023-01-19T10:42:48.661Z,11.85
2023-01-19T10:45:25.460Z,12.01
2023-01-19T10:47:53.997Z,12.04
2023-01-19T10:50:34.717Z,12.17
2023-01-19T10:53:06.197Z,12.40
2023-01-19T10:55:38.385Z,12.56
2023-01-19T10:58:25.096Z,12.71
2023-01-19T11:00:58.722Z,12.67
2023-01-19T11:03:31.869Z,12.67
2023-01-19T11:06:21.460Z,12.53
2023-01-19T11:08:51.311Z,12.63
2023-01-19T11:11:22.720Z,12.77
2023-01-19T11:14:29.188Z,12.84
2023-01-19T11:17:00.203Z,12.98
2023-01-19T11:19:33.689Z,13.16
2023-01-19T11:22:38.696Z,13.34
2023-01-19T11:25:21.339Z,13.49
2023-01-19T11:27:52.495Z,13.58
2023-01-19T11:30:24.083Z,13.64
2023-01-19T11:32:51.757Z,13.66
2023-01-19T11:35:39.428Z,13.69
2023-01-19T11:38:24.939Z,13.79
2023-01-19T11:40:56.482Z,13.84
2023-01-19T11:43:36.622Z,13.76
2023-01-19T11:46:16.294Z,13.62
2023-01-19T11:48:56.437Z,13.45
2023-01-19T11:51:27.330Z,13.30
2023-01-19T11:53:55.752Z,13.12
2023-01-19T11:56:28.493Z,12.95
2023-01-19T11:58:58.413Z,12.85
2023-01-19T12:01:32.563Z,12.74
2023-01-19T12:04:31.198Z,12.69
2023-01-19T12:07:07.851Z,12.67
2023-01-19T12:09:49.097Z,12.69
2023-01-19T12:12:30.639Z,12.72
2023-01-19T12:15:07.668Z,12.77
2023-01-19T12:17:52.954Z,12.74
2023-01-19T12:20:35.989Z,12.74
2023-01-19T12:23:21.336Z,12.78
2023-01-19T12:26:30.228Z,12.75
2023-01-19T12:29:25.613Z,12.91
2023-01-19T12:32:31.508Z,13.27
2023-01-19T12:35:11.386Z,13.76
2023-01-19T12:38:36.708Z,14.44
2023-01-19T12:41:27.781Z,15.15
2023-01-19T12:44:19.929Z,15.86
2023-01-19T12:47:08.522Z,16.59
2023-01-19T12:49:45.231Z,17.21
2023-01-19T12:52:23.795Z,17.48
2023-01-19T12:55:20.460Z,17.63
2023-01-19T12:58:23.514Z,17.34
2023-01-19T13:01:30.597Z,16.78
2023-01-19T13:11:12.736Z,15.51
2023-01-19T13:15:33.570Z,14.44
2023-01-19T13:22:11.348Z,13.96
2023-01-19T13:24:53.676Z,13.80
2023-01-19T13:27:49.985Z,13.64
2023-01-19T13:31:35.773Z,13.30
2023-01-19T13:38:28.563Z,12.75
2023-01-19T13:41:41.867Z,12.60
2023-01-19T14:24:41.968Z,11.72
2023-01-19T14:28:21.529Z,11.52
2023-01-19T14:31:25.411Z,11.41
2023-01-19T14:34:01.112Z,11.30
2023-01-19T14:36:46.109Z,11.20
2023-01-19T14:39:36.206Z,11.13
2023-01-19T14:42:57.838Z,11.07
2023-01-19T14:49:55.281Z,10.94
2023-01-19T14:52:35.196Z,10.87
2023-01-19T14:55:24.137Z,10.82
2023-01-19T14:58:19.159Z,10.78
2023-01-19T15:04:07.908Z,10.68
2023-01-19T15:26:52.090Z,10.30
2023-01-19T15:29:32.250Z,10.26
2023-01-19T15:32:25.852Z,10.23
2023-01-19T15:35:59.711Z,10.19
2023-01-19T15:39:28.464Z,10.13
2023-01-19T15:42:41.693Z,10.10
2023-01-19T15:50:14.446Z,10.05
2023-01-19T15:54:06.392Z,10.03
2023-01-19T15:58:05.154Z,10.01
2023-01-19T16:05:41.957Z,9.95
2023-01-19T16:19:56.371Z,10.05
2023-01-19T17:01:52.225Z,8.55
2023-01-19T17:18:18.532Z,8.24
2023-01-19T17:25:44.308Z,8.24
2023-01-19T17:29:15.356Z,8.24
2023-01-19T17:33:12.631Z,8.26
2023-01-19T17:37:12.177Z,8.25
2023-01-19T17:40:51.398Z,8.20
2023-01-19T17:44:23.670Z,8.12
2023-01-19T17:47:54.247Z,8.01
2023-01-19T17:55:41.383Z,7.76
2023-01-19T17:59:27.196Z,7.68
2023-01-19T18:03:11.326Z,7.61
2023-01-19T18:06:45.374Z,7.54
2023-01-19T18:10:14.564Z,7.48
2023-01-19T18:13:28.234Z,7.43
2023-01-19T18:16:51.294Z,7.38
2023-01-19T18:19:57.320Z,7.35
2023-01-19T18:22:25.485Z,7.33
2023-01-19T18:25:13.264Z,7.31
2023-01-19T18:27:41.409Z,7.29
2023-01-19T18:30:09.841Z,7.26
2023-01-19T18:33:09.523Z,7.24
2023-01-19T18:35:39.243Z,7.21
2023-01-19T18:38:28.398Z,7.20
2023-01-19T18:41:12.450Z,7.16
2023-01-19T18:43:40.746Z,7.13
2023-01-19T18:46:09.522Z,7.10
2023-01-19T18:48:38.316Z,7.11
2023-01-19T18:51:09.021Z,7.12
2023-01-19T18:53:38.513Z,7.12
2023-01-19T18:56:30.813Z,7.13
2023-01-19T18:59:14.016Z,7.16
2023-01-19T19:01:42.296Z,7.19
2023-01-19T19:04:12.946Z,7.23
2023-01-19T19:06:40.830Z,7.29
2023-01-19T19:09:14.029Z,7.39
2023-01-19T19:11:43.582Z,7.45
2023-01-19T19:14:33.961Z,7.53
2023-01-19T19:17:03.416Z,7.59
2023-01-19T19:19:31.744Z,7.60
2023-01-19T19:22:16.593Z,7.63
2023-01-19T19:24:51.740Z,7.64
2023-01-19T19:27:20.224Z,7.64
2023-01-19T19:29:49.083Z,7.59
2023-01-19T19:32:21.899Z,7.55
2023-01-19T19:35:24.410Z,7.52
2023-01-19T19:37:58.032Z,7.45
2023-01-19T19:40:45.502Z,7.39
2023-01-19T19:43:23.115Z,7.30
2023-01-19T19:46:05.283Z,7.24
2023-01-19T19:48:34.394Z,7.22
2023-01-19T19:51:27.082Z,7.19
2023-01-19T19:54:10.536Z,7.17
2023-01-19T19:57:21.930Z,7.14
2023-01-19T20:00:48.244Z,7.10
2023-01-19T20:03:34.288Z,7.06
2023-01-19T20:08:13.234Z,7.03
2023-01-19T20:10:17.263Z,7.01
2023-01-19T20:13:39.955Z,6.97
2023-01-19T20:20:13.635Z,6.90
2023-01-19T20:23:31.385Z,6.86
2023-01-19T20:26:34.544Z,6.83
2023-01-19T20:33:19.089Z,6.76
2023-01-19T20:36:24.579Z,6.73
2023-01-19T20:44:07.429Z,6.74
2023-01-19T20:47:40.940Z,6.81
2023-01-19T20:50:47.402Z,6.87
2023-01-19T20:54:32.909Z,6.96
2023-01-19T20:57:45.131Z,7.04
2023-01-19T21:01:01.407Z,7.12
2023-01-19T21:04:30.339Z,7.20
2023-01-19T21:07:56.678Z,7.24
2023-01-19T21:11:29.635Z,7.22
2023-01-19T21:14:36.784Z,7.20
2023-01-19T21:17:32.500Z,7.16
2023-01-19T21:20:58.164Z,7.10
2023-01-19T21:24:20.008Z,7.05
2023-01-19T21:27:17.371Z,6.99
2023-01-19T21:29:45.302Z,6.94
2023-01-19T21:32:13.251Z,6.90
2023-01-19T21:34:44.259Z,6.87
2023-01-19T21:37:12.086Z,6.81
2023-01-19T21:39:39.946Z,6.77
2023-01-19T21:42:07.823Z,6.73
2023-01-19T21:44:35.739Z,6.68
2023-01-19T21:47:08.945Z,6.65
2023-01-19T21:49:36.953Z,6.62
2023-01-19T21:52:05.069Z,6.59
2023-01-19T21:54:33.224Z,6.58
2023-01-19T21:57:03.242Z,6.57
2023-01-19T21:59:31.150Z,6.56
2023-01-19T22:01:59.205Z,6.56
2023-01-19T22:04:28.367Z,6.56
2023-01-19T22:06:56.434Z,6.57
2023-01-19T22:09:24.379Z,6.59
2023-01-19T22:11:52.183Z,6.60
2023-01-19T22:14:19.947Z,6.60
2023-01-19T22:16:47.854Z,6.60
2023-01-19T22:19:15.696Z,6.58
2023-01-19T22:21:43.531Z,6.55
2023-01-19T22:24:12.924Z,6.53
2023-01-19T22:26:40.746Z,6.50
2023-01-19T22:29:11.134Z,6.49
2023-01-19T22:31:39.838Z,6.49
2023-01-19T22:34:10.285Z,6.50
2023-01-19T22:36:38.431Z,6.51
2023-01-19T22:39:09.188Z,6.53
2023-01-19T22:41:41.261Z,6.54
2023-01-19T22:44:13.904Z,6.57
2023-01-19T22:46:42.367Z,6.51
2023-01-19T22:49:13.251Z,6.47
2023-01-19T22:51:41.450Z,6.42
2023-01-19T22:54:10.474Z,6.38
2023-01-19T22:56:39.391Z,6.34
2023-01-19T22:59:07.793Z,6.32
2023-01-19T23:01:41.225Z,6.28
2023-01-19T23:04:13.106Z,6.25
2023-01-19T23:06:42.579Z,6.20
2023-01-19T23:09:13.655Z,6.15
2023-01-19T23:11:44.176Z,6.11
2023-01-19T23:14:15.686Z,6.07
2023-01-19T23:16:43.551Z,6.03
2023-01-19T23:19:12.413Z,6.00
2023-01-19T23:21:41.041Z,5.95
2023-01-19T23:24:09.214Z,5.91
2023-01-19T23:26:38.439Z,5.89
2023-01-19T23:29:11.269Z,5.86
2023-01-19T23:31:42.651Z,5.83
2023-01-19T23:34:12.418Z,5.80
2023-01-19T23:36:42.459Z,5.75
2023-01-19T23:39:18.023Z,5.70
2023-01-19T23:41:46.897Z,5.68
2023-01-19T23:44:15.574Z,5.70
2023-01-19T23:46:44.008Z,5.71
2023-01-19T23:49:12.749Z,5.73
2023-01-19T23:51:41.303Z,5.76
2023-01-19T23:54:09.405Z,5.75
2023-01-19T23:56:38.703Z,5.72
2023-01-19T23:59:10.043Z,5.69
